Terminal Aerodrome Forecast
Issued by NWS Wilmington, OH

Current Version | Previous Version | Graphics & Text | Print | Product List | Glossary On
Versions: 1 2 3 4 5 6 7 8 9 10 11 12 13 14 15 16 17 18 19 20 21
000
FTUS41 KILN 121700
TAFCVG
TAF
KCVG 121736Z 1218/1324 26007KT P6SM SCT045 BKN150 OVC200
     FM122100 24008KT P6SM VCSH BKN060
     FM130100 19006KT P6SM BKN100
     FM131200 20012KT P6SM VCSH SCT040 BKN080
     FM131900 23012G19KT P6SM VCTS BKN040CB=

USA.gov is the U.S. government's official web portal to all federal, state and local government web resources and services.